KMSV/MSV METAR and TAF weather

Enter ICAO airport designator
Station Type Date Time Source
KMSV METAR 2021/01/27 14:07 UTC NOAA

KMSV 271407Z AUTO 31011KT 9SM -SN OVC014 M03/M05 A2994 RMK AO2 SNB00 P0000 FZRANO


Station Type Date Time Source
KMSV Decoded METAR 2021/01/27 14:07 UTC NOAA

Monticello, Sullivan County International Airport, NY, United States (KMSV) 41-42N 074-48W
Jan 27, 2021 - 09:07 AM EST / 2021.01.27 1407 UTC
Wind: from the NW (310 degrees) at 13 MPH (11 KT):0
Visibility: 9 mile(s):0
Sky conditions: overcast
Weather: light snow
Precipitation last hour: A trace
Temperature: 26 F (-3 C)
Windchill: 14 F (-10 C):1
Dew Point: 23 F (-5 C)
Relative Humidity: 86%
Pressure (altimeter): 29.94 in. Hg (1013 hPa)
ob: KMSV 271407Z AUTO 31011KT 9SM -SN OVC014 M03/M05 A2994 RMK AO2 SNB00 P0000 FZRANO
cycle: 14

Station Type Date Time Source
KMSV TAF UTC NOAA

Error!

Example: see airport list